sensor_id;sensor_type;location;lat;lon;timestamp;P1;durP1;ratioP1;P2;durP2;ratioP2
29238;SDS011;16267;48.194;11.546;2023-04-15T00:00:30;7.07;;;3.40;;
29238;SDS011;16267;48.194;11.546;2023-04-15T00:02:55;11.32;;;4.30;;
29238;SDS011;16267;48.194;11.546;2023-04-15T00:05:21;7.28;;;3.55;;
29238;SDS011;16267;48.194;11.546;2023-04-15T00:07:47;8.45;;;3.72;;
29238;SDS011;16267;48.194;11.546;2023-04-15T00:10:12;14.77;;;4.45;;
29238;SDS011;16267;48.194;11.546;2023-04-15T00:15:07;9.10;;;3.17;;
29238;SDS011;16267;48.194;11.546;2023-04-15T00:17:33;8.32;;;3.78;;
29238;SDS011;16267;48.194;11.546;2023-04-15T00:20:00;9.35;;;4.47;;
29238;SDS011;16267;48.194;11.546;2023-04-15T00:22:26;9.95;;;4.03;;
29238;SDS011;16267;48.194;11.546;2023-04-15T00:24:55;7.35;;;4.30;;
29238;SDS011;16267;48.194;11.546;2023-04-15T00:27:21;9.40;;;3.90;;
29238;SDS011;16267;48.194;11.546;2023-04-15T00:29:46;10.75;;;3.97;;
29238;SDS011;16267;48.194;11.546;2023-04-15T00:32:12;5.78;;;3.88;;
29238;SDS011;16267;48.194;11.546;2023-04-15T00:34:38;9.77;;;3.95;;
29238;SDS011;16267;48.194;11.546;2023-04-15T00:37:04;7.38;;;3.90;;
29238;SDS011;16267;48.194;11.546;2023-04-15T00:39:30;8.18;;;3.85;;
29238;SDS011;16267;48.194;11.546;2023-04-15T00:41:56;7.40;;;3.80;;
29238;SDS011;16267;48.194;11.546;2023-04-15T00:44:22;11.93;;;4.05;;
29238;SDS011;16267;48.194;11.546;2023-04-15T00:46:49;9.35;;;3.88;;
29238;SDS011;16267;48.194;11.546;2023-04-15T00:49:16;8.75;;;4.20;;
29238;SDS011;16267;48.194;11.546;2023-04-15T00:51:43;9.98;;;4.10;;
29238;SDS011;16267;48.194;11.546;2023-04-15T00:54:09;7.30;;;3.75;;
29238;SDS011;16267;48.194;11.546;2023-04-15T00:56:35;11.82;;;4.47;;
29238;SDS011;16267;48.194;11.546;2023-04-15T00:59:03;10.75;;;4.32;;
29238;SDS011;16267;48.194;11.546;2023-04-15T01:01:33;9.00;;;4.18;;
29238;SDS011;16267;48.194;11.546;2023-04-15T01:04:00;7.72;;;4.22;;
29238;SDS011;16267;48.194;11.546;2023-04-15T01:06:27;10.27;;;4.50;;
29238;SDS011;16267;48.194;11.546;2023-04-15T01:08:54;8.43;;;4.60;;
29238;SDS011;16267;48.194;11.546;2023-04-15T01:11:21;9.07;;;5.03;;
29238;SDS011;16267;48.194;11.546;2023-04-15T01:13:49;9.38;;;4.22;;
29238;SDS011;16267;48.194;11.546;2023-04-15T01:16:16;7.10;;;4.22;;
29238;SDS011;16267;48.194;11.546;2023-04-15T01:18:43;7.95;;;4.40;;
29238;SDS011;16267;48.194;11.546;2023-04-15T01:21:10;9.57;;;4.93;;
29238;SDS011;16267;48.194;11.546;2023-04-15T01:23:36;7.88;;;4.25;;
29238;SDS011;16267;48.194;11.546;2023-04-15T01:26:03;11.85;;;5.07;;
29238;SDS011;16267;48.194;11.546;2023-04-15T01:28:31;11.15;;;4.93;;
29238;SDS011;16267;48.194;11.546;2023-04-15T01:31:05;9.88;;;4.40;;
29238;SDS011;16267;48.194;11.546;2023-04-15T01:33:37;7.55;;;4.60;;
29238;SDS011;16267;48.194;11.546;2023-04-15T01:36:05;10.23;;;4.82;;
29238;SDS011;16267;48.194;11.546;2023-04-15T01:38:32;15.10;;;5.50;;
29238;SDS011;16267;48.194;11.546;2023-04-15T01:40:58;12.95;;;5.47;;
29238;SDS011;16267;48.194;11.546;2023-04-15T01:43:25;12.52;;;5.10;;
29238;SDS011;16267;48.194;11.546;2023-04-15T01:45:52;12.60;;;5.47;;
29238;SDS011;16267;48.194;11.546;2023-04-15T01:48:18;9.68;;;4.85;;
29238;SDS011;16267;48.194;11.546;2023-04-15T01:50:44;9.65;;;5.53;;
29238;SDS011;16267;48.194;11.546;2023-04-15T01:53:10;9.77;;;5.47;;
29238;SDS011;16267;48.194;11.546;2023-04-15T01:55:36;9.10;;;5.32;;
29238;SDS011;16267;48.194;11.546;2023-04-15T01:58:02;10.20;;;6.07;;
29238;SDS011;16267;48.194;11.546;2023-04-15T02:00:28;17.13;;;5.50;;
29238;SDS011;16267;48.194;11.546;2023-04-15T02:02:54;9.35;;;5.18;;
29238;SDS011;16267;48.194;11.546;2023-04-15T02:05:20;9.20;;;4.95;;
29238;SDS011;16267;48.194;11.546;2023-04-15T02:07:46;9.38;;;5.38;;
29238;SDS011;16267;48.194;11.546;2023-04-15T02:10:12;11.05;;;5.25;;
29238;SDS011;16267;48.194;11.546;2023-04-15T02:12:38;9.48;;;5.88;;
29238;SDS011;16267;48.194;11.546;2023-04-15T02:15:04;9.07;;;5.53;;
29238;SDS011;16267;48.194;11.546;2023-04-15T02:17:34;8.68;;;5.63;;
29238;SDS011;16267;48.194;11.546;2023-04-15T02:20:01;9.80;;;5.32;;
29238;SDS011;16267;48.194;11.546;2023-04-15T02:22:32;10.95;;;5.53;;
29238;SDS011;16267;48.194;11.546;2023-04-15T02:24:58;10.68;;;5.68;;
29238;SDS011;16267;48.194;11.546;2023-04-15T02:27:24;9.32;;;5.93;;
29238;SDS011;16267;48.194;11.546;2023-04-15T02:29:50;10.70;;;5.25;;
29238;SDS011;16267;48.194;11.546;2023-04-15T02:32:16;7.65;;;5.00;;
29238;SDS011;16267;48.194;11.546;2023-04-15T02:34:42;8.90;;;5.53;;
29238;SDS011;16267;48.194;11.546;2023-04-15T02:37:09;9.43;;;5.35;;
29238;SDS011;16267;48.194;11.546;2023-04-15T02:39:37;11.27;;;5.40;;
29238;SDS011;16267;48.194;11.546;2023-04-15T02:42:03;11.15;;;5.85;;
29238;SDS011;16267;48.194;11.546;2023-04-15T02:44:30;12.85;;;5.05;;
29238;SDS011;16267;48.194;11.546;2023-04-15T02:46:57;9.40;;;5.75;;
29238;SDS011;16267;48.194;11.546;2023-04-15T02:49:23;7.70;;;4.80;;
29238;SDS011;16267;48.194;11.546;2023-04-15T02:51:50;9.40;;;5.22;;
29238;SDS011;16267;48.194;11.546;2023-04-15T02:54:16;8.00;;;4.97;;
29238;SDS011;16267;48.194;11.546;2023-04-15T02:56:47;10.32;;;5.13;;
29238;SDS011;16267;48.194;11.546;2023-04-15T02:59:13;8.57;;;4.90;;
29238;SDS011;16267;48.194;11.546;2023-04-15T03:01:39;15.23;;;6.30;;
29238;SDS011;16267;48.194;11.546;2023-04-15T03:04:05;11.00;;;4.90;;
29238;SDS011;16267;48.194;11.546;2023-04-15T03:06:32;8.30;;;5.07;;
29238;SDS011;16267;48.194;11.546;2023-04-15T03:08:59;9.27;;;5.30;;
29238;SDS011;16267;48.194;11.546;2023-04-15T03:11:27;8.40;;;4.85;;
29238;SDS011;16267;48.194;11.546;2023-04-15T03:13:53;8.30;;;5.35;;
29238;SDS011;16267;48.194;11.546;2023-04-15T03:16:19;9.02;;;5.18;;
29238;SDS011;16267;48.194;11.546;2023-04-15T03:18:45;9.68;;;5.00;;
29238;SDS011;16267;48.194;11.546;2023-04-15T03:21:11;11.38;;;5.13;;
29238;SDS011;16267;48.194;11.546;2023-04-15T03:23:37;10.95;;;5.10;;
29238;SDS011;16267;48.194;11.546;2023-04-15T03:26:03;11.20;;;5.20;;
29238;SDS011;16267;48.194;11.546;2023-04-15T03:28:29;9.93;;;5.18;;
29238;SDS011;16267;48.194;11.546;2023-04-15T03:30:57;9.32;;;5.40;;
29238;SDS011;16267;48.194;11.546;2023-04-15T03:33:24;8.68;;;4.72;;
29238;SDS011;16267;48.194;11.546;2023-04-15T03:35:50;9.55;;;4.93;;
29238;SDS011;16267;48.194;11.546;2023-04-15T03:38:17;13.45;;;6.00;;
29238;SDS011;16267;48.194;11.546;2023-04-15T03:40:43;8.85;;;4.95;;
29238;SDS011;16267;48.194;11.546;2023-04-15T03:43:10;9.85;;;5.35;;
29238;SDS011;16267;48.194;11.546;2023-04-15T03:45:36;8.95;;;5.18;;
29238;SDS011;16267;48.194;11.546;2023-04-15T03:48:02;9.23;;;4.95;;
29238;SDS011;16267;48.194;11.546;2023-04-15T03:50:28;13.13;;;5.25;;
29238;SDS011;16267;48.194;11.546;2023-04-15T03:52:54;9.02;;;5.72;;
29238;SDS011;16267;48.194;11.546;2023-04-15T03:55:19;9.05;;;5.60;;
29238;SDS011;16267;48.194;11.546;2023-04-15T03:57:45;9.82;;;5.45;;
29238;SDS011;16267;48.194;11.546;2023-04-15T04:00:11;12.77;;;5.72;;
29238;SDS011;16267;48.194;11.546;2023-04-15T04:02:37;10.52;;;5.85;;
29238;SDS011;16267;48.194;11.546;2023-04-15T04:05:03;10.30;;;6.13;;
29238;SDS011;16267;48.194;11.546;2023-04-15T04:07:29;10.52;;;5.80;;
29238;SDS011;16267;48.194;11.546;2023-04-15T04:09:56;11.48;;;6.07;;
29238;SDS011;16267;48.194;11.546;2023-04-15T04:12:22;9.70;;;5.43;;
29238;SDS011;16267;48.194;11.546;2023-04-15T04:14:47;7.78;;;5.57;;
29238;SDS011;16267;48.194;11.546;2023-04-15T04:17:13;10.43;;;5.95;;
29238;SDS011;16267;48.194;11.546;2023-04-15T04:19:39;11.48;;;5.63;;
29238;SDS011;16267;48.194;11.546;2023-04-15T04:22:05;11.10;;;5.30;;
29238;SDS011;16267;48.194;11.546;2023-04-15T04:24:31;10.48;;;5.57;;
29238;SDS011;16267;48.194;11.546;2023-04-15T04:26:56;9.38;;;5.25;;
29238;SDS011;16267;48.194;11.546;2023-04-15T04:29:22;13.88;;;5.70;;
29238;SDS011;16267;48.194;11.546;2023-04-15T04:31:48;9.60;;;5.30;;
29238;SDS011;16267;48.194;11.546;2023-04-15T04:34:14;14.27;;;5.50;;
29238;SDS011;16267;48.194;11.546;2023-04-15T04:36:40;9.20;;;5.18;;
29238;SDS011;16267;48.194;11.546;2023-04-15T04:39:06;10.27;;;5.43;;
29238;SDS011;16267;48.194;11.546;2023-04-15T04:41:32;8.27;;;4.93;;
29238;SDS011;16267;48.194;11.546;2023-04-15T04:43:58;8.70;;;4.97;;
29238;SDS011;16267;48.194;11.546;2023-04-15T04:46:23;11.65;;;5.35;;
29238;SDS011;16267;48.194;11.546;2023-04-15T04:48:49;7.88;;;5.20;;
29238;SDS011;16267;48.194;11.546;2023-04-15T04:51:15;10.30;;;5.07;;
29238;SDS011;16267;48.194;11.546;2023-04-15T04:53:41;8.95;;;5.55;;
29238;SDS011;16267;48.194;11.546;2023-04-15T04:56:07;8.48;;;4.95;;
29238;SDS011;16267;48.194;11.546;2023-04-15T04:58:33;9.70;;;4.57;;
29238;SDS011;16267;48.194;11.546;2023-04-15T05:00:58;11.02;;;4.63;;
29238;SDS011;16267;48.194;11.546;2023-04-15T05:03:24;10.35;;;5.05;;
29238;SDS011;16267;48.194;11.546;2023-04-15T05:05:51;9.85;;;4.55;;
29238;SDS011;16267;48.194;11.546;2023-04-15T05:08:17;7.65;;;4.15;;
29238;SDS011;16267;48.194;11.546;2023-04-15T05:10:42;5.97;;;3.92;;
29238;SDS011;16267;48.194;11.546;2023-04-15T05:13:08;8.35;;;4.20;;
29238;SDS011;16267;48.194;11.546;2023-04-15T05:15:34;15.40;;;4.38;;
29238;SDS011;16267;48.194;11.546;2023-04-15T05:18:01;8.65;;;3.97;;
29238;SDS011;16267;48.194;11.546;2023-04-15T05:20:27;7.88;;;3.65;;
29238;SDS011;16267;48.194;11.546;2023-04-15T05:22:53;7.25;;;3.60;;
29238;SDS011;16267;48.194;11.546;2023-04-15T05:25:18;7.65;;;4.32;;
29238;SDS011;16267;48.194;11.546;2023-04-15T05:27:45;10.07;;;3.92;;
29238;SDS011;16267;48.194;11.546;2023-04-15T05:30:10;8.68;;;4.22;;
29238;SDS011;16267;48.194;11.546;2023-04-15T05:32:37;13.30;;;4.00;;
29238;SDS011;16267;48.194;11.546;2023-04-15T05:35:02;6.78;;;3.53;;
29238;SDS011;16267;48.194;11.546;2023-04-15T05:37:29;9.48;;;3.95;;
29238;SDS011;16267;48.194;11.546;2023-04-15T05:39:55;10.45;;;3.95;;
29238;SDS011;16267;48.194;11.546;2023-04-15T05:42:20;8.65;;;3.60;;
29238;SDS011;16267;48.194;11.546;2023-04-15T05:44:46;13.70;;;3.75;;
29238;SDS011;16267;48.194;11.546;2023-04-15T05:47:12;7.20;;;3.30;;
29238;SDS011;16267;48.194;11.546;2023-04-15T05:49:38;9.52;;;3.45;;
29238;SDS011;16267;48.194;11.546;2023-04-15T05:52:03;7.63;;;3.30;;
29238;SDS011;16267;48.194;11.546;2023-04-15T05:54:29;11.05;;;3.25;;
29238;SDS011;16267;48.194;11.546;2023-04-15T05:56:56;9.60;;;3.15;;
29238;SDS011;16267;48.194;11.546;2023-04-15T05:59:22;8.27;;;3.10;;
29238;SDS011;16267;48.194;11.546;2023-04-15T06:01:48;9.02;;;3.60;;
29238;SDS011;16267;48.194;11.546;2023-04-15T06:04:14;10.57;;;2.90;;
29238;SDS011;16267;48.194;11.546;2023-04-15T06:06:41;6.85;;;2.60;;
29238;SDS011;16267;48.194;11.546;2023-04-15T06:09:06;8.00;;;2.95;;
29238;SDS011;16267;48.194;11.546;2023-04-15T06:11:32;6.45;;;2.63;;
29238;SDS011;16267;48.194;11.546;2023-04-15T06:13:58;6.28;;;2.90;;
29238;SDS011;16267;48.194;11.546;2023-04-15T06:16:25;6.57;;;2.85;;
29238;SDS011;16267;48.194;11.546;2023-04-15T06:18:51;12.07;;;3.25;;
29238;SDS011;16267;48.194;11.546;2023-04-15T06:21:17;7.65;;;2.90;;
29238;SDS011;16267;48.194;11.546;2023-04-15T06:23:43;7.75;;;2.90;;
29238;SDS011;16267;48.194;11.546;2023-04-15T06:26:09;5.32;;;2.70;;
29238;SDS011;16267;48.194;11.546;2023-04-15T06:28:35;6.28;;;2.65;;
29238;SDS011;16267;48.194;11.546;2023-04-15T06:31:00;8.38;;;2.63;;
29238;SDS011;16267;48.194;11.546;2023-04-15T06:33:27;9.27;;;2.67;;
29238;SDS011;16267;48.194;11.546;2023-04-15T06:35:53;5.70;;;2.15;;
29238;SDS011;16267;48.194;11.546;2023-04-15T06:38:19;11.02;;;2.92;;
29238;SDS011;16267;48.194;11.546;2023-04-15T06:40:45;3.63;;;2.03;;
29238;SDS011;16267;48.194;11.546;2023-04-15T06:43:11;7.40;;;2.55;;
29238;SDS011;16267;48.194;11.546;2023-04-15T06:45:36;5.93;;;2.58;;
29238;SDS011;16267;48.194;11.546;2023-04-15T06:48:02;4.38;;;2.25;;
29238;SDS011;16267;48.194;11.546;2023-04-15T06:50:29;4.35;;;2.20;;
29238;SDS011;16267;48.194;11.546;2023-04-15T06:52:55;7.45;;;2.50;;
29238;SDS011;16267;48.194;11.546;2023-04-15T06:55:21;6.93;;;2.63;;
29238;SDS011;16267;48.194;11.546;2023-04-15T06:57:47;7.35;;;2.30;;
29238;SDS011;16267;48.194;11.546;2023-04-15T07:00:12;8.20;;;2.30;;
29238;SDS011;16267;48.194;11.546;2023-04-15T07:02:38;6.35;;;2.20;;
29238;SDS011;16267;48.194;11.546;2023-04-15T07:05:05;3.50;;;1.70;;
29238;SDS011;16267;48.194;11.546;2023-04-15T07:07:31;6.15;;;2.15;;
29238;SDS011;16267;48.194;11.546;2023-04-15T07:09:57;12.27;;;2.42;;
29238;SDS011;16267;48.194;11.546;2023-04-15T07:12:23;6.50;;;2.08;;
29238;SDS011;16267;48.194;11.546;2023-04-15T07:14:49;6.78;;;2.10;;
29238;SDS011;16267;48.194;11.546;2023-04-15T07:17:14;6.25;;;2.10;;
29238;SDS011;16267;48.194;11.546;2023-04-15T07:19:40;6.65;;;2.40;;
29238;SDS011;16267;48.194;11.546;2023-04-15T07:22:06;6.28;;;2.08;;
29238;SDS011;16267;48.194;11.546;2023-04-15T07:24:32;4.22;;;1.85;;
29238;SDS011;16267;48.194;11.546;2023-04-15T07:26:57;7.63;;;2.25;;
29238;SDS011;16267;48.194;11.546;2023-04-15T07:29:23;7.32;;;2.45;;
29238;SDS011;16267;48.194;11.546;2023-04-15T07:31:51;9.40;;;2.03;;
29238;SDS011;16267;48.194;11.546;2023-04-15T07:34:17;7.15;;;2.05;;
29238;SDS011;16267;48.194;11.546;2023-04-15T07:36:44;7.22;;;2.17;;
29238;SDS011;16267;48.194;11.546;2023-04-15T07:39:14;9.30;;;2.20;;
29238;SDS011;16267;48.194;11.546;2023-04-15T07:41:40;5.90;;;2.10;;
29238;SDS011;16267;48.194;11.546;2023-04-15T07:44:06;5.25;;;1.80;;
29238;SDS011;16267;48.194;11.546;2023-04-15T07:46:32;6.72;;;2.03;;
29238;SDS011;16267;48.194;11.546;2023-04-15T07:48:58;6.53;;;1.63;;
29238;SDS011;16267;48.194;11.546;2023-04-15T07:51:23;6.65;;;2.05;;
29238;SDS011;16267;48.194;11.546;2023-04-15T07:53:49;5.00;;;1.77;;
29238;SDS011;16267;48.194;11.546;2023-04-15T07:56:15;2.42;;;1.75;;
29238;SDS011;16267;48.194;11.546;2023-04-15T07:58:41;8.93;;;2.88;;
29238;SDS011;16267;48.194;11.546;2023-04-15T08:01:07;5.00;;;1.77;;
29238;SDS011;16267;48.194;11.546;2023-04-15T08:03:33;5.95;;;1.80;;
29238;SDS011;16267;48.194;11.546;2023-04-15T08:05:59;4.45;;;2.08;;
29238;SDS011;16267;48.194;11.546;2023-04-15T08:08:25;8.13;;;2.08;;
29238;SDS011;16267;48.194;11.546;2023-04-15T08:10:51;7.72;;;2.40;;
29238;SDS011;16267;48.194;11.546;2023-04-15T08:13:17;8.40;;;2.83;;
29238;SDS011;16267;48.194;11.546;2023-04-15T08:15:42;7.32;;;1.95;;
29238;SDS011;16267;48.194;11.546;2023-04-15T08:18:08;4.90;;;2.03;;
29238;SDS011;16267;48.194;11.546;2023-04-15T08:20:35;5.75;;;1.70;;
29238;SDS011;16267;48.194;11.546;2023-04-15T08:23:01;5.45;;;2.00;;
29238;SDS011;16267;48.194;11.546;2023-04-15T08:25:28;8.27;;;2.00;;
29238;SDS011;16267;48.194;11.546;2023-04-15T08:27:54;7.03;;;1.88;;
29238;SDS011;16267;48.194;11.546;2023-04-15T08:30:23;7.40;;;2.20;;
29238;SDS011;16267;48.194;11.546;2023-04-15T08:32:49;6.60;;;2.45;;
29238;SDS011;16267;48.194;11.546;2023-04-15T08:35:15;7.00;;;2.00;;
29238;SDS011;16267;48.194;11.546;2023-04-15T08:37:41;6.85;;;2.10;;
29238;SDS011;16267;48.194;11.546;2023-04-15T08:40:07;5.45;;;2.30;;
29238;SDS011;16267;48.194;11.546;2023-04-15T08:42:36;6.57;;;1.98;;
29238;SDS011;16267;48.194;11.546;2023-04-15T08:45:11;8.23;;;2.20;;
29238;SDS011;16267;48.194;11.546;2023-04-15T08:47:37;6.30;;;1.77;;
29238;SDS011;16267;48.194;11.546;2023-04-15T08:50:05;5.32;;;2.08;;
29238;SDS011;16267;48.194;11.546;2023-04-15T08:52:34;5.18;;;2.22;;
29238;SDS011;16267;48.194;11.546;2023-04-15T08:55:01;3.88;;;2.10;;
29238;SDS011;16267;48.194;11.546;2023-04-15T08:57:28;6.97;;;2.40;;
29238;SDS011;16267;48.194;11.546;2023-04-15T08:59:57;5.75;;;2.47;;
29238;SDS011;16267;48.194;11.546;2023-04-15T09:02:23;5.07;;;1.92;;
29238;SDS011;16267;48.194;11.546;2023-04-15T09:04:51;3.30;;;1.85;;
29238;SDS011;16267;48.194;11.546;2023-04-15T09:07:17;5.13;;;2.22;;
29238;SDS011;16267;48.194;11.546;2023-04-15T09:09:43;6.90;;;2.65;;
29238;SDS011;16267;48.194;11.546;2023-04-15T09:12:10;5.88;;;2.92;;
29238;SDS011;16267;48.194;11.546;2023-04-15T09:14:36;8.70;;;3.20;;
29238;SDS011;16267;48.194;11.546;2023-04-15T09:17:04;4.47;;;2.42;;
29238;SDS011;16267;48.194;11.546;2023-04-15T09:19:34;4.40;;;2.30;;
29238;SDS011;16267;48.194;11.546;2023-04-15T09:22:00;5.63;;;2.83;;
29238;SDS011;16267;48.194;11.546;2023-04-15T09:24:33;6.72;;;3.70;;
29238;SDS011;16267;48.194;11.546;2023-04-15T09:27:02;7.35;;;4.30;;
29238;SDS011;16267;48.194;11.546;2023-04-15T09:29:28;13.18;;;6.13;;
29238;SDS011;16267;48.194;11.546;2023-04-15T09:31:54;7.13;;;3.83;;
29238;SDS011;16267;48.194;11.546;2023-04-15T09:34:20;7.10;;;3.22;;
29238;SDS011;16267;48.194;11.546;2023-04-15T09:36:59;6.28;;;3.30;;
29238;SDS011;16267;48.194;11.546;2023-04-15T09:39:24;5.30;;;2.67;;
29238;SDS011;16267;48.194;11.546;2023-04-15T09:42:06;7.47;;;2.90;;
29238;SDS011;16267;48.194;11.546;2023-04-15T09:44:32;9.93;;;2.90;;
29238;SDS011;16267;48.194;11.546;2023-04-15T09:46:58;5.88;;;2.63;;
29238;SDS011;16267;48.194;11.546;2023-04-15T09:49:24;7.10;;;2.85;;
29238;SDS011;16267;48.194;11.546;2023-04-15T09:51:50;7.03;;;2.85;;
29238;SDS011;16267;48.194;11.546;2023-04-15T09:54:22;7.38;;;3.58;;
29238;SDS011;16267;48.194;11.546;2023-04-15T09:56:48;8.57;;;3.10;;
29238;SDS011;16267;48.194;11.546;2023-04-15T09:59:13;8.27;;;3.20;;
29238;SDS011;16267;48.194;11.546;2023-04-15T10:01:39;5.55;;;3.42;;
29238;SDS011;16267;48.194;11.546;2023-04-15T10:04:07;6.78;;;4.30;;
29238;SDS011;16267;48.194;11.546;2023-04-15T10:06:33;6.28;;;3.97;;
29238;SDS011;16267;48.194;11.546;2023-04-15T10:09:00;10.95;;;3.75;;
29238;SDS011;16267;48.194;11.546;2023-04-15T10:11:29;7.15;;;3.38;;
29238;SDS011;16267;48.194;11.546;2023-04-15T10:13:57;11.35;;;4.78;;
29238;SDS011;16267;48.194;11.546;2023-04-15T10:16:25;12.05;;;4.05;;
29238;SDS011;16267;48.194;11.546;2023-04-15T10:18:56;7.68;;;3.50;;
29238;SDS011;16267;48.194;11.546;2023-04-15T10:21:25;7.53;;;3.67;;
29238;SDS011;16267;48.194;11.546;2023-04-15T10:23:52;8.13;;;3.50;;
29238;SDS011;16267;48.194;11.546;2023-04-15T10:26:18;43.03;;;11.13;;
29238;SDS011;16267;48.194;11.546;2023-04-15T10:28:48;8.27;;;3.72;;
29238;SDS011;16267;48.194;11.546;2023-04-15T10:31:15;5.90;;;3.17;;
29238;SDS011;16267;48.194;11.546;2023-04-15T10:33:42;7.63;;;4.03;;
29238;SDS011;16267;48.194;11.546;2023-04-15T10:36:16;12.73;;;4.60;;
29238;SDS011;16267;48.194;11.546;2023-04-15T10:38:44;7.40;;;3.90;;
29238;SDS011;16267;48.194;11.546;2023-04-15T10:41:18;6.90;;;3.60;;
29238;SDS011;16267;48.194;11.546;2023-04-15T10:43:48;6.07;;;3.50;;
29238;SDS011;16267;48.194;11.546;2023-04-15T10:46:21;13.18;;;4.47;;
29238;SDS011;16267;48.194;11.546;2023-04-15T10:49:00;7.70;;;3.42;;
29238;SDS011;16267;48.194;11.546;2023-04-15T10:51:43;6.22;;;3.70;;
29238;SDS011;16267;48.194;11.546;2023-04-15T10:54:15;7.60;;;3.95;;
29238;SDS011;16267;48.194;11.546;2023-04-15T10:59:30;9.30;;;4.22;;
29238;SDS011;16267;48.194;11.546;2023-04-15T11:02:04;8.57;;;4.68;;
29238;SDS011;16267;48.194;11.546;2023-04-15T11:04:50;8.75;;;4.47;;
29238;SDS011;16267;48.194;11.546;2023-04-15T11:12:38;9.50;;;4.55;;
29238;SDS011;16267;48.194;11.546;2023-04-15T11:20:46;8.65;;;4.78;;
29238;SDS011;16267;48.194;11.546;2023-04-15T11:23:15;8.63;;;4.93;;
29238;SDS011;16267;48.194;11.546;2023-04-15T11:26:11;11.68;;;6.82;;
29238;SDS011;16267;48.194;11.546;2023-04-15T11:28:41;10.80;;;5.00;;
29238;SDS011;16267;48.194;11.546;2023-04-15T11:31:15;10.13;;;5.30;;
29238;SDS011;16267;48.194;11.546;2023-04-15T11:36:25;7.88;;;4.82;;
29238;SDS011;16267;48.194;11.546;2023-04-15T11:38:54;7.05;;;4.97;;
29238;SDS011;16267;48.194;11.546;2023-04-15T11:41:24;10.90;;;5.20;;
29238;SDS011;16267;48.194;11.546;2023-04-15T11:43:50;9.82;;;5.18;;
29238;SDS011;16267;48.194;11.546;2023-04-15T11:46:16;8.18;;;4.93;;
29238;SDS011;16267;48.194;11.546;2023-04-15T11:48:43;9.13;;;4.68;;
29238;SDS011;16267;48.194;11.546;2023-04-15T11:51:10;8.90;;;4.72;;
29238;SDS011;16267;48.194;11.546;2023-04-15T11:53:44;10.13;;;4.88;;
29238;SDS011;16267;48.194;11.546;2023-04-15T11:56:19;8.55;;;5.35;;
29238;SDS011;16267;48.194;11.546;2023-04-15T11:58:48;8.50;;;4.50;;
29238;SDS011;16267;48.194;11.546;2023-04-15T12:01:18;9.38;;;5.03;;
29238;SDS011;16267;48.194;11.546;2023-04-15T12:03:44;9.13;;;4.70;;
29238;SDS011;16267;48.194;11.546;2023-04-15T12:06:16;8.48;;;5.03;;
29238;SDS011;16267;48.194;11.546;2023-04-15T12:08:49;9.38;;;4.57;;
29238;SDS011;16267;48.194;11.546;2023-04-15T12:11:41;6.65;;;3.90;;
29238;SDS011;16267;48.194;11.546;2023-04-15T12:16:57;11.65;;;4.40;;
29238;SDS011;16267;48.194;11.546;2023-04-15T12:22:04;5.18;;;3.40;;
29238;SDS011;16267;48.194;11.546;2023-04-15T12:24:34;6.20;;;3.90;;
29238;SDS011;16267;48.194;11.546;2023-04-15T12:27:02;8.90;;;3.50;;
29238;SDS011;16267;48.194;11.546;2023-04-15T12:29:33;6.78;;;3.40;;
29238;SDS011;16267;48.194;11.546;2023-04-15T12:34:38;7.13;;;2.95;;
29238;SDS011;16267;48.194;11.546;2023-04-15T12:37:07;6.70;;;2.22;;
29238;SDS011;16267;48.194;11.546;2023-04-15T12:39:36;5.50;;;2.50;;
29238;SDS011;16267;48.194;11.546;2023-04-15T12:42:04;5.45;;;2.08;;
29238;SDS011;16267;48.194;11.546;2023-04-15T12:44:31;4.20;;;2.00;;
29238;SDS011;16267;48.194;11.546;2023-04-15T12:46:58;4.55;;;2.38;;
29238;SDS011;16267;48.194;11.546;2023-04-15T12:49:24;4.93;;;2.08;;
29238;SDS011;16267;48.194;11.546;2023-04-15T12:51:51;4.18;;;2.15;;
29238;SDS011;16267;48.194;11.546;2023-04-15T12:54:23;5.35;;;2.75;;
29238;SDS011;16267;48.194;11.546;2023-04-15T12:56:49;4.57;;;2.47;;
29238;SDS011;16267;48.194;11.546;2023-04-15T12:59:15;4.97;;;2.50;;
29238;SDS011;16267;48.194;11.546;2023-04-15T13:01:42;7.00;;;2.60;;
29238;SDS011;16267;48.194;11.546;2023-04-15T13:04:09;5.95;;;3.10;;
29238;SDS011;16267;48.194;11.546;2023-04-15T13:06:35;10.60;;;4.05;;
29238;SDS011;16267;48.194;11.546;2023-04-15T13:09:05;6.75;;;3.88;;
29238;SDS011;16267;48.194;11.546;2023-04-15T13:11:31;11.18;;;3.80;;
29238;SDS011;16267;48.194;11.546;2023-04-15T13:13:59;9.05;;;4.30;;
29238;SDS011;16267;48.194;11.546;2023-04-15T13:16:26;8.02;;;3.50;;
29238;SDS011;16267;48.194;11.546;2023-04-15T13:18:52;8.43;;;4.05;;
29238;SDS011;16267;48.194;11.546;2023-04-15T13:21:18;14.18;;;4.00;;
29238;SDS011;16267;48.194;11.546;2023-04-15T13:23:44;8.48;;;4.13;;
29238;SDS011;16267;48.194;11.546;2023-04-15T13:26:10;9.60;;;4.35;;
29238;SDS011;16267;48.194;11.546;2023-04-15T13:28:36;7.00;;;3.47;;
29238;SDS011;16267;48.194;11.546;2023-04-15T13:31:02;10.32;;;3.70;;
29238;SDS011;16267;48.194;11.546;2023-04-15T13:33:29;11.32;;;3.95;;
29238;SDS011;16267;48.194;11.546;2023-04-15T13:35:55;7.30;;;4.43;;
29238;SDS011;16267;48.194;11.546;2023-04-15T13:38:21;7.43;;;4.22;;
29238;SDS011;16267;48.194;11.546;2023-04-15T13:40:49;8.40;;;4.22;;
29238;SDS011;16267;48.194;11.546;2023-04-15T13:43:15;8.10;;;4.70;;
29238;SDS011;16267;48.194;11.546;2023-04-15T13:45:41;10.05;;;5.07;;
29238;SDS011;16267;48.194;11.546;2023-04-15T13:48:08;10.30;;;4.13;;
29238;SDS011;16267;48.194;11.546;2023-04-15T13:50:33;7.47;;;4.57;;
29238;SDS011;16267;48.194;11.546;2023-04-15T13:53:00;6.93;;;4.00;;
29238;SDS011;16267;48.194;11.546;2023-04-15T13:55:26;11.40;;;5.10;;
29238;SDS011;16267;48.194;11.546;2023-04-15T13:57:52;10.73;;;4.60;;
29238;SDS011;16267;48.194;11.546;2023-04-15T14:00:18;8.55;;;3.83;;
29238;SDS011;16267;48.194;11.546;2023-04-15T14:02:43;6.45;;;3.95;;
29238;SDS011;16267;48.194;11.546;2023-04-15T14:05:10;7.70;;;3.75;;
29238;SDS011;16267;48.194;11.546;2023-04-15T14:07:36;6.50;;;3.30;;
29238;SDS011;16267;48.194;11.546;2023-04-15T14:10:02;8.63;;;4.03;;
29238;SDS011;16267;48.194;11.546;2023-04-15T14:12:28;6.30;;;3.40;;
29238;SDS011;16267;48.194;11.546;2023-04-15T14:14:53;7.13;;;3.25;;
29238;SDS011;16267;48.194;11.546;2023-04-15T14:17:19;9.40;;;3.22;;
29238;SDS011;16267;48.194;11.546;2023-04-15T14:19:45;6.90;;;3.10;;
29238;SDS011;16267;48.194;11.546;2023-04-15T14:22:11;7.20;;;3.28;;
29238;SDS011;16267;48.194;11.546;2023-04-15T14:24:36;6.70;;;3.35;;
29238;SDS011;16267;48.194;11.546;2023-04-15T14:27:02;8.73;;;3.67;;
29238;SDS011;16267;48.194;11.546;2023-04-15T14:29:28;5.90;;;3.35;;
29238;SDS011;16267;48.194;11.546;2023-04-15T14:31:55;9.50;;;3.70;;
29238;SDS011;16267;48.194;11.546;2023-04-15T14:34:22;8.10;;;3.28;;
29238;SDS011;16267;48.194;11.546;2023-04-15T14:36:49;6.25;;;3.28;;
29238;SDS011;16267;48.194;11.546;2023-04-15T14:39:17;7.63;;;3.78;;
29238;SDS011;16267;48.194;11.546;2023-04-15T14:41:44;8.35;;;3.97;;
29238;SDS011;16267;48.194;11.546;2023-04-15T14:44:10;5.82;;;4.00;;
29238;SDS011;16267;48.194;11.546;2023-04-15T14:46:36;4.28;;;3.25;;
29238;SDS011;16267;48.194;11.546;2023-04-15T14:49:04;8.15;;;3.47;;
29238;SDS011;16267;48.194;11.546;2023-04-15T14:51:30;4.68;;;3.38;;
29238;SDS011;16267;48.194;11.546;2023-04-15T14:53:56;8.02;;;3.78;;
29238;SDS011;16267;48.194;11.546;2023-04-15T14:56:22;7.70;;;3.90;;